Time;durP1;ratioP1;P1;durP2;ratioP2;P2;SDS_P1;SDS_P2;PMS_P1;PMS_P2;Temp;Humidity;BMP_temperature;BMP_pressure;BME280_temperature;BME280_humidity;BME280_pressure;Samples;Min_cycle;Max_cycle;Signal;HPM_P1;HPM_P2
2024/01/23 00:10:01;;;;;;;16.67;12.10;;;4.50;99.90;;;;;;5884270;23;20212;-85
2024/01/23 00:30:17;;;;;;;17.33;12.33;;;4.90;99.90;;;;;;5797151;24;20194;-87
2024/01/23 00:55:11;;;;;;;18.20;13.00;;;4.90;99.90;;;;;;5658216;24;20374;-85
2024/01/23 01:20:57;;;;;;;17.43;12.10;;;4.80;99.90;;;;;;5444516;25;20284;-85
2024/01/23 01:56:32;;;;;;;16.60;12.57;;;4.80;99.90;;;;;;5997652;23;20212;-84
2024/01/23 02:00:53;;;;;;;17.33;11.87;;;4.70;99.90;;;;;;5989595;23;20664;-84
2024/01/23 02:26:45;;;;;;;18.23;11.87;;;4.70;99.90;;;;;;5685827;24;20238;-84
2024/01/23 02:46:59;;;;;;;16.90;11.10;;;4.60;99.90;;;;;;5785261;24;20181;-83
2024/01/23 03:27:12;;;;;;;15.20;10.07;;;4.90;99.90;;;;;;5686878;24;20502;-83
2024/01/23 03:47:57;;;;;;;16.23;9.80;;;5.00;99.90;;;;;;5809388;24;20236;-83
2024/01/23 04:13:18;;;;;;;14.67;8.97;;;4.50;99.90;;;;;;5821794;24;20528;-82
2024/01/23 04:43:08;;;;;;;14.73;9.83;;;4.10;99.90;;;;;;5834817;24;20230;-82
2024/01/23 05:09:02;;;;;;;15.97;9.63;;;4.20;99.90;;;;;;5845673;24;20297;-85
2024/01/23 05:44:26;;;;;;;19.90;11.67;;;4.20;99.90;;;;;;5758561;24;20246;-84
2024/01/23 06:04:49;;;;;;;18.97;12.00;;;3.70;99.90;;;;;;5737328;24;20209;-81
2024/01/23 06:25:02;;;;;;;20.73;12.93;;;3.50;99.90;;;;;;5707543;24;20594;-83
2024/01/23 06:50:18;;;;;;;21.07;13.67;;;3.00;99.90;;;;;;5720051;24;20171;-83
2024/01/23 07:10:19;;;;;;;21.57;14.00;;;3.30;99.90;;;;;;5778452;23;21275;-85
2024/01/23 07:36:04;;;;;;;21.27;13.53;;;3.90;99.90;;;;;;5693642;24;20548;-84
2024/01/23 08:01:24;;;;;;;16.17;9.87;;;5.20;99.90;;;;;;5800056;24;20213;-79
2024/01/23 08:26:39;;;;;;;13.63;8.50;;;5.70;99.90;;;;;;5680674;24;20179;-82
2024/01/23 08:51:59;;;;;;;13.13;7.13;;;6.10;99.90;;;;;;5709465;24;20678;-84
2024/01/23 09:16:49;;;;;;;11.37;7.53;;;6.20;99.90;;;;;;5735900;24;20278;-81
2024/01/23 09:47:54;;;;;;;11.30;7.10;;;6.60;99.90;;;;;;5766360;24;20267;-82
2024/01/23 10:13:03;;;;;;;9.97;6.27;;;6.90;99.90;;;;;;5734577;24;20837;-84
2024/01/23 11:08:56;;;;;;;14.87;8.27;;;6.90;99.90;;;;;;5521775;24;20557;-80
2024/01/23 11:38:52;;;;;;;16.43;9.10;;;6.80;99.90;;;;;;5764932;23;20396;-79
2024/01/23 11:54:55;;;;;;;14.40;8.30;;;6.60;99.90;;;;;;5727127;24;20436;-81
2024/01/23 11:59:09;;;;;;;11.93;8.37;;;6.60;99.90;;;;;;5651072;24;20953;-82
2024/01/23 12:19:28;;;;;;;13.47;8.57;;;6.50;99.90;;;;;;5592295;24;20396;-78
2024/01/23 12:40:16;;;;;;;13.57;7.23;;;6.40;99.90;;;;;;5511110;25;20192;-82
2024/01/23 13:05:34;;;;;;;12.93;6.90;;;6.00;99.90;;;;;;5510718;25;20272;-82
2024/01/23 13:25:50;;;;;;;8.40;5.87;;;6.30;99.90;;;;;;5537151;24;20450;-80
2024/01/23 13:56:13;;;;;;;8.60;5.63;;;6.50;99.00;;;;;;5518806;24;20220;-81
2024/01/23 14:56:40;;;;;;;9.03;5.73;;;6.20;98.90;;;;;;5502325;25;20636;-79
2024/01/23 15:17:17;;;;;;;10.60;6.93;;;6.10;99.90;;;;;;5636709;24;20647;-83
2024/01/23 15:27:11;;;;;;;14.87;7.70;;;6.00;99.90;;;;;;6122631;23;20204;-85
2024/01/23 15:57:49;;;;;;;18.30;7.87;;;5.80;99.90;;;;;;5873163;24;20531;-87
2024/01/23 16:28:31;;;;;;;15.63;8.53;;;5.20;99.90;;;;;;5790361;24;20250;-85
2024/01/23 16:58:52;;;;;;;14.20;8.27;;;5.20;99.90;;;;;;5682855;24;20214;-86
2024/01/23 17:23:41;;;;;;;15.33;8.23;;;5.30;99.90;;;;;;5577588;25;20632;-86
2024/01/23 18:30:13;;;;;;;18.07;7.20;;;5.10;99.90;;;;;;5710877;24;20948;-87
2024/01/23 18:50:13;;;;;;;17.70;6.83;;;4.90;99.90;;;;;;5783584;24;20421;-87
2024/01/23 19:15:59;;;;;;;19.27;7.13;;;5.20;99.90;;;;;;5679119;24;20256;-85
2024/01/23 19:20:19;;;;;;;11.70;6.47;;;5.10;99.90;;;;;;5625824;24;20408;-85
2024/01/23 19:41:05;;;;;;;10.87;6.40;;;4.90;99.90;;;;;;5610344;24;20518;-85
2024/01/23 20:01:24;;;;;;;14.83;7.87;;;4.50;99.90;;;;;;5729156;24;20237;-88
2024/01/23 20:26:40;;;;;;;17.63;7.50;;;4.10;99.90;;;;;;5764221;24;20164;-87
2024/01/23 20:46:58;;;;;;;18.63;8.10;;;3.80;99.90;;;;;;5577934;25;20217;-86
2024/01/23 21:17:27;;;;;;;15.50;7.37;;;4.00;99.90;;;;;;5705975;24;20592;-82
2024/01/23 21:42:45;;;;;;;16.13;7.30;;;3.90;99.90;;;;;;5622161;25;20185;-87
2024/01/23 22:28:35;;;;;;;16.07;7.23;;;4.60;99.90;;;;;;5639135;24;20178;-86
2024/01/23 23:34:35;;;;;;;18.17;6.30;;;3.80;99.90;;;;;;5496894;25;20204;-85
2024/01/23 23:59:44;;;;;;;12.90;6.27;;;3.70;99.90;;;;;;5644623;24;20318;-82
